sensor_id;sensor_type;location;lat;lon;timestamp;temperature;humidity
10245;DHT22;5167;52.164;10.530;2023-11-19T00:01:33;7.90;70.40
10245;DHT22;5167;52.164;10.530;2023-11-19T00:03:58;7.90;71.00
10245;DHT22;5167;52.164;10.530;2023-11-19T00:06:24;7.90;70.90
10245;DHT22;5167;52.164;10.530;2023-11-19T00:08:51;8.00;70.50
10245;DHT22;5167;52.164;10.530;2023-11-19T00:11:17;8.00;70.40
10245;DHT22;5167;52.164;10.530;2023-11-19T00:13:42;8.00;70.80
10245;DHT22;5167;52.164;10.530;2023-11-19T00:16:08;8.00;71.70
10245;DHT22;5167;52.164;10.530;2023-11-19T00:18:35;8.00;71.40
10245;DHT22;5167;52.164;10.530;2023-11-19T00:21:01;8.10;70.60
10245;DHT22;5167;52.164;10.530;2023-11-19T00:23:27;8.00;70.80
10245;DHT22;5167;52.164;10.530;2023-11-19T00:25:53;8.00;70.00
10245;DHT22;5167;52.164;10.530;2023-11-19T00:28:18;8.10;70.40
10245;DHT22;5167;52.164;10.530;2023-11-19T00:30:44;8.10;70.50
10245;DHT22;5167;52.164;10.530;2023-11-19T00:33:10;8.10;70.40
10245;DHT22;5167;52.164;10.530;2023-11-19T00:35:35;8.10;71.20
10245;DHT22;5167;52.164;10.530;2023-11-19T00:38:01;8.10;71.00
10245;DHT22;5167;52.164;10.530;2023-11-19T00:40:28;8.20;70.30
10245;DHT22;5167;52.164;10.530;2023-11-19T00:42:54;8.20;71.00
10245;DHT22;5167;52.164;10.530;2023-11-19T00:45:19;8.30;70.80
10245;DHT22;5167;52.164;10.530;2023-11-19T00:47:45;8.20;71.10
10245;DHT22;5167;52.164;10.530;2023-11-19T00:50:10;8.30;71.80
10245;DHT22;5167;52.164;10.530;2023-11-19T00:52:37;8.40;72.40
10245;DHT22;5167;52.164;10.530;2023-11-19T00:55:03;8.40;72.90
10245;DHT22;5167;52.164;10.530;2023-11-19T00:57:30;8.50;72.90
10245;DHT22;5167;52.164;10.530;2023-11-19T01:00:01;8.50;72.50
10245;DHT22;5167;52.164;10.530;2023-11-19T01:02:26;8.70;71.90
10245;DHT22;5167;52.164;10.530;2023-11-19T01:04:52;8.60;72.30
10245;DHT22;5167;52.164;10.530;2023-11-19T01:07:17;8.70;71.00
10245;DHT22;5167;52.164;10.530;2023-11-19T01:09:43;8.70;70.70
10245;DHT22;5167;52.164;10.530;2023-11-19T01:12:09;8.80;70.80
10245;DHT22;5167;52.164;10.530;2023-11-19T01:14:35;8.80;70.60
10245;DHT22;5167;52.164;10.530;2023-11-19T01:17:01;8.70;70.90
10245;DHT22;5167;52.164;10.530;2023-11-19T01:19:26;8.80;70.80
10245;DHT22;5167;52.164;10.530;2023-11-19T01:21:54;8.90;71.10
10245;DHT22;5167;52.164;10.530;2023-11-19T01:24:20;8.90;71.40
10245;DHT22;5167;52.164;10.530;2023-11-19T01:26:46;8.90;71.50
10245;DHT22;5167;52.164;10.530;2023-11-19T01:29:15;8.90;71.70
10245;DHT22;5167;52.164;10.530;2023-11-19T01:31:41;9.00;71.30
10245;DHT22;5167;52.164;10.530;2023-11-19T01:34:07;9.10;71.60
10245;DHT22;5167;52.164;10.530;2023-11-19T01:36:33;9.00;71.00
10245;DHT22;5167;52.164;10.530;2023-11-19T01:38:59;9.10;71.40
10245;DHT22;5167;52.164;10.530;2023-11-19T01:41:24;9.20;71.30
10245;DHT22;5167;52.164;10.530;2023-11-19T01:43:50;9.20;70.90
10245;DHT22;5167;52.164;10.530;2023-11-19T01:46:16;9.20;70.60
10245;DHT22;5167;52.164;10.530;2023-11-19T01:48:44;9.20;69.90
10245;DHT22;5167;52.164;10.530;2023-11-19T01:51:12;9.30;70.80
10245;DHT22;5167;52.164;10.530;2023-11-19T01:53:38;9.20;70.70
10245;DHT22;5167;52.164;10.530;2023-11-19T01:56:07;9.30;71.20
10245;DHT22;5167;52.164;10.530;2023-11-19T01:58:35;9.30;71.40
10245;DHT22;5167;52.164;10.530;2023-11-19T02:01:00;9.30;74.30
10245;DHT22;5167;52.164;10.530;2023-11-19T02:03:30;9.30;77.90
10245;DHT22;5167;52.164;10.530;2023-11-19T02:05:56;9.40;82.20
10245;DHT22;5167;52.164;10.530;2023-11-19T02:08:23;9.50;85.90
10245;DHT22;5167;52.164;10.530;2023-11-19T02:10:48;9.50;94.00
10245;DHT22;5167;52.164;10.530;2023-11-19T02:13:14;9.60;99.60
10245;DHT22;5167;52.164;10.530;2023-11-19T02:15:40;9.60;99.90
10245;DHT22;5167;52.164;10.530;2023-11-19T02:18:23;9.80;99.90
10245;DHT22;5167;52.164;10.530;2023-11-19T02:20:50;9.80;99.90
10245;DHT22;5167;52.164;10.530;2023-11-19T02:23:16;9.80;99.90
10245;DHT22;5167;52.164;10.530;2023-11-19T02:25:42;9.80;99.90
10245;DHT22;5167;52.164;10.530;2023-11-19T02:28:08;9.90;99.90
10245;DHT22;5167;52.164;10.530;2023-11-19T02:30:37;10.00;99.90
10245;DHT22;5167;52.164;10.530;2023-11-19T02:33:03;10.00;99.90
10245;DHT22;5167;52.164;10.530;2023-11-19T02:35:31;10.10;99.90
10245;DHT22;5167;52.164;10.530;2023-11-19T02:37:57;10.20;99.90
10245;DHT22;5167;52.164;10.530;2023-11-19T02:40:24;10.10;99.90
10245;DHT22;5167;52.164;10.530;2023-11-19T02:42:51;10.10;99.90
10245;DHT22;5167;52.164;10.530;2023-11-19T02:45:16;10.20;99.90
10245;DHT22;5167;52.164;10.530;2023-11-19T02:47:43;10.40;99.90
10245;DHT22;5167;52.164;10.530;2023-11-19T02:50:11;10.30;99.90
10245;DHT22;5167;52.164;10.530;2023-11-19T02:52:44;10.40;99.90
10245;DHT22;5167;52.164;10.530;2023-11-19T02:55:11;10.30;99.90
10245;DHT22;5167;52.164;10.530;2023-11-19T02:57:41;10.40;99.90
10245;DHT22;5167;52.164;10.530;2023-11-19T03:00:21;10.50;99.90
10245;DHT22;5167;52.164;10.530;2023-11-19T03:02:51;10.40;99.90
10245;DHT22;5167;52.164;10.530;2023-11-19T03:05:31;10.40;99.90
10245;DHT22;5167;52.164;10.530;2023-11-19T03:07:56;10.40;99.90
10245;DHT22;5167;52.164;10.530;2023-11-19T03:10:23;10.30;99.90
10245;DHT22;5167;52.164;10.530;2023-11-19T03:12:49;10.30;99.90
10245;DHT22;5167;52.164;10.530;2023-11-19T03:15:15;10.30;99.90
10245;DHT22;5167;52.164;10.530;2023-11-19T03:17:42;10.40;99.90
10245;DHT22;5167;52.164;10.530;2023-11-19T03:20:09;10.30;99.90
10245;DHT22;5167;52.164;10.530;2023-11-19T03:22:38;10.40;99.90
10245;DHT22;5167;52.164;10.530;2023-11-19T03:25:04;10.40;99.90
10245;DHT22;5167;52.164;10.530;2023-11-19T03:27:30;10.40;99.90
10245;DHT22;5167;52.164;10.530;2023-11-19T03:29:55;10.50;99.90
10245;DHT22;5167;52.164;10.530;2023-11-19T03:32:21;10.40;99.90
10245;DHT22;5167;52.164;10.530;2023-11-19T03:34:46;10.60;99.90
10245;DHT22;5167;52.164;10.530;2023-11-19T03:37:12;10.50;99.90
10245;DHT22;5167;52.164;10.530;2023-11-19T03:39:41;10.50;99.90
10245;DHT22;5167;52.164;10.530;2023-11-19T03:42:07;10.50;99.90
10245;DHT22;5167;52.164;10.530;2023-11-19T03:44:33;10.40;99.90
10245;DHT22;5167;52.164;10.530;2023-11-19T03:46:58;10.40;99.90
10245;DHT22;5167;52.164;10.530;2023-11-19T03:49:23;10.50;99.90
10245;DHT22;5167;52.164;10.530;2023-11-19T03:51:49;10.50;99.90
10245;DHT22;5167;52.164;10.530;2023-11-19T03:54:15;10.50;99.90
10245;DHT22;5167;52.164;10.530;2023-11-19T03:56:40;10.60;99.90
10245;DHT22;5167;52.164;10.530;2023-11-19T03:59:06;10.50;99.90
10245;DHT22;5167;52.164;10.530;2023-11-19T04:01:31;10.70;99.90
10245;DHT22;5167;52.164;10.530;2023-11-19T04:03:57;10.70;99.90
10245;DHT22;5167;52.164;10.530;2023-11-19T04:06:22;10.60;99.90
10245;DHT22;5167;52.164;10.530;2023-11-19T04:08:48;10.60;99.90
10245;DHT22;5167;52.164;10.530;2023-11-19T04:11:14;10.60;99.90
10245;DHT22;5167;52.164;10.530;2023-11-19T04:13:40;10.70;99.90
10245;DHT22;5167;52.164;10.530;2023-11-19T04:16:06;10.80;99.90
10245;DHT22;5167;52.164;10.530;2023-11-19T04:18:31;10.80;99.90
10245;DHT22;5167;52.164;10.530;2023-11-19T04:21:00;10.70;99.90
10245;DHT22;5167;52.164;10.530;2023-11-19T04:23:25;10.80;99.90
10245;DHT22;5167;52.164;10.530;2023-11-19T04:25:51;10.80;99.90
10245;DHT22;5167;52.164;10.530;2023-11-19T04:28:16;10.80;99.90
10245;DHT22;5167;52.164;10.530;2023-11-19T04:30:43;10.90;99.90
10245;DHT22;5167;52.164;10.530;2023-11-19T04:33:09;10.90;99.90
10245;DHT22;5167;52.164;10.530;2023-11-19T04:35:35;10.90;99.90
10245;DHT22;5167;52.164;10.530;2023-11-19T04:38:00;11.00;99.90
10245;DHT22;5167;52.164;10.530;2023-11-19T04:40:26;11.00;99.90
10245;DHT22;5167;52.164;10.530;2023-11-19T04:42:51;11.00;99.90
10245;DHT22;5167;52.164;10.530;2023-11-19T04:45:17;11.00;99.90
10245;DHT22;5167;52.164;10.530;2023-11-19T04:47:43;11.20;99.90
10245;DHT22;5167;52.164;10.530;2023-11-19T04:50:09;11.10;99.90
10245;DHT22;5167;52.164;10.530;2023-11-19T04:52:39;11.20;99.90
10245;DHT22;5167;52.164;10.530;2023-11-19T04:55:06;11.20;99.90
10245;DHT22;5167;52.164;10.530;2023-11-19T04:57:32;11.20;99.90
10245;DHT22;5167;52.164;10.530;2023-11-19T04:59:58;11.20;99.90
10245;DHT22;5167;52.164;10.530;2023-11-19T05:02:23;11.20;99.90
10245;DHT22;5167;52.164;10.530;2023-11-19T05:04:49;11.30;99.90
10245;DHT22;5167;52.164;10.530;2023-11-19T05:07:14;11.30;99.90
10245;DHT22;5167;52.164;10.530;2023-11-19T05:09:40;11.50;99.90
10245;DHT22;5167;52.164;10.530;2023-11-19T05:12:06;11.40;99.90
10245;DHT22;5167;52.164;10.530;2023-11-19T05:14:35;11.50;99.90
10245;DHT22;5167;52.164;10.530;2023-11-19T05:17:00;11.50;99.90
10245;DHT22;5167;52.164;10.530;2023-11-19T05:19:26;11.50;99.90
10245;DHT22;5167;52.164;10.530;2023-11-19T05:21:51;11.50;99.90
10245;DHT22;5167;52.164;10.530;2023-11-19T05:24:17;11.40;99.90
10245;DHT22;5167;52.164;10.530;2023-11-19T05:26:43;11.40;99.90
10245;DHT22;5167;52.164;10.530;2023-11-19T05:29:08;11.40;99.90
10245;DHT22;5167;52.164;10.530;2023-11-19T05:31:34;11.50;99.90
10245;DHT22;5167;52.164;10.530;2023-11-19T05:34:00;11.40;99.90
10245;DHT22;5167;52.164;10.530;2023-11-19T05:36:25;11.50;99.90
10245;DHT22;5167;52.164;10.530;2023-11-19T05:38:51;11.50;99.90
10245;DHT22;5167;52.164;10.530;2023-11-19T05:41:16;11.50;99.90
10245;DHT22;5167;52.164;10.530;2023-11-19T05:43:42;11.50;99.90
10245;DHT22;5167;52.164;10.530;2023-11-19T05:46:08;11.60;99.90
10245;DHT22;5167;52.164;10.530;2023-11-19T05:48:34;11.50;99.90
10245;DHT22;5167;52.164;10.530;2023-11-19T05:51:00;11.60;99.90
10245;DHT22;5167;52.164;10.530;2023-11-19T05:53:25;11.60;99.90
10245;DHT22;5167;52.164;10.530;2023-11-19T05:55:51;11.50;99.90
10245;DHT22;5167;52.164;10.530;2023-11-19T05:58:27;11.60;99.90
10245;DHT22;5167;52.164;10.530;2023-11-19T06:00:55;11.60;99.90
10245;DHT22;5167;52.164;10.530;2023-11-19T06:03:21;11.50;99.90
10245;DHT22;5167;52.164;10.530;2023-11-19T06:05:48;11.60;99.90
10245;DHT22;5167;52.164;10.530;2023-11-19T06:08:14;11.60;99.90
10245;DHT22;5167;52.164;10.530;2023-11-19T06:10:43;11.60;99.90
10245;DHT22;5167;52.164;10.530;2023-11-19T06:13:11;11.60;99.90
10245;DHT22;5167;52.164;10.530;2023-11-19T06:15:37;11.60;99.90
10245;DHT22;5167;52.164;10.530;2023-11-19T06:18:03;11.60;99.90
10245;DHT22;5167;52.164;10.530;2023-11-19T06:20:33;11.70;99.90
10245;DHT22;5167;52.164;10.530;2023-11-19T06:22:59;11.70;99.90
10245;DHT22;5167;52.164;10.530;2023-11-19T06:25:24;11.70;99.90
10245;DHT22;5167;52.164;10.530;2023-11-19T06:27:51;11.70;99.90
10245;DHT22;5167;52.164;10.530;2023-11-19T06:30:16;11.80;99.90
10245;DHT22;5167;52.164;10.530;2023-11-19T06:32:42;11.80;99.90
10245;DHT22;5167;52.164;10.530;2023-11-19T06:35:08;11.80;99.90
10245;DHT22;5167;52.164;10.530;2023-11-19T06:37:40;11.80;99.90
10245;DHT22;5167;52.164;10.530;2023-11-19T06:40:07;11.90;99.90
10245;DHT22;5167;52.164;10.530;2023-11-19T06:42:34;12.00;99.90
10245;DHT22;5167;52.164;10.530;2023-11-19T06:45:00;11.90;99.90
10245;DHT22;5167;52.164;10.530;2023-11-19T06:47:28;11.90;99.90
10245;DHT22;5167;52.164;10.530;2023-11-19T06:49:54;12.00;99.90
10245;DHT22;5167;52.164;10.530;2023-11-19T06:52:20;11.90;99.90
10245;DHT22;5167;52.164;10.530;2023-11-19T06:54:45;11.90;99.90
10245;DHT22;5167;52.164;10.530;2023-11-19T06:57:11;11.90;99.90
10245;DHT22;5167;52.164;10.530;2023-11-19T06:59:37;11.90;99.90
10245;DHT22;5167;52.164;10.530;2023-11-19T07:02:03;11.80;99.90
10245;DHT22;5167;52.164;10.530;2023-11-19T07:04:30;11.80;99.90
10245;DHT22;5167;52.164;10.530;2023-11-19T07:06:55;11.90;99.90
10245;DHT22;5167;52.164;10.530;2023-11-19T07:09:21;11.90;99.90
10245;DHT22;5167;52.164;10.530;2023-11-19T07:11:46;11.90;99.90
10245;DHT22;5167;52.164;10.530;2023-11-19T07:14:12;11.90;99.90
10245;DHT22;5167;52.164;10.530;2023-11-19T07:16:38;11.90;99.90
10245;DHT22;5167;52.164;10.530;2023-11-19T07:19:06;12.00;99.90
10245;DHT22;5167;52.164;10.530;2023-11-19T07:21:32;11.90;99.90
10245;DHT22;5167;52.164;10.530;2023-11-19T07:23:59;12.00;99.90
10245;DHT22;5167;52.164;10.530;2023-11-19T07:26:25;12.00;99.90
10245;DHT22;5167;52.164;10.530;2023-11-19T07:28:50;12.10;99.90
10245;DHT22;5167;52.164;10.530;2023-11-19T07:31:16;12.20;99.90
10245;DHT22;5167;52.164;10.530;2023-11-19T07:33:42;12.10;99.90
10245;DHT22;5167;52.164;10.530;2023-11-19T07:36:09;12.20;99.90
10245;DHT22;5167;52.164;10.530;2023-11-19T07:38:34;12.20;99.90
10245;DHT22;5167;52.164;10.530;2023-11-19T07:41:00;12.20;99.90
10245;DHT22;5167;52.164;10.530;2023-11-19T07:43:26;12.30;99.90
10245;DHT22;5167;52.164;10.530;2023-11-19T07:45:51;12.30;99.90
10245;DHT22;5167;52.164;10.530;2023-11-19T07:48:17;12.30;99.90
10245;DHT22;5167;52.164;10.530;2023-11-19T07:50:48;12.30;99.90
10245;DHT22;5167;52.164;10.530;2023-11-19T07:53:16;12.40;99.90
10245;DHT22;5167;52.164;10.530;2023-11-19T07:55:41;12.40;99.90
10245;DHT22;5167;52.164;10.530;2023-11-19T07:58:07;12.40;99.90
10245;DHT22;5167;52.164;10.530;2023-11-19T08:00:32;12.40;99.90
10245;DHT22;5167;52.164;10.530;2023-11-19T08:02:58;12.40;99.90
10245;DHT22;5167;52.164;10.530;2023-11-19T08:05:23;12.40;99.90
10245;DHT22;5167;52.164;10.530;2023-11-19T08:07:50;12.40;99.90
10245;DHT22;5167;52.164;10.530;2023-11-19T08:10:16;12.50;99.90
10245;DHT22;5167;52.164;10.530;2023-11-19T08:12:42;12.50;99.90
10245;DHT22;5167;52.164;10.530;2023-11-19T08:15:08;12.60;99.90
10245;DHT22;5167;52.164;10.530;2023-11-19T08:17:33;12.70;99.90
10245;DHT22;5167;52.164;10.530;2023-11-19T08:19:59;12.80;99.90
10245;DHT22;5167;52.164;10.530;2023-11-19T08:22:25;12.90;99.90
10245;DHT22;5167;52.164;10.530;2023-11-19T08:24:51;13.00;99.90
10245;DHT22;5167;52.164;10.530;2023-11-19T08:27:16;13.10;99.90
10245;DHT22;5167;52.164;10.530;2023-11-19T08:29:42;13.20;99.90
10245;DHT22;5167;52.164;10.530;2023-11-19T08:32:07;13.30;99.90
10245;DHT22;5167;52.164;10.530;2023-11-19T08:34:33;13.50;99.90
10245;DHT22;5167;52.164;10.530;2023-11-19T08:36:59;13.50;99.90
10245;DHT22;5167;52.164;10.530;2023-11-19T08:39:25;13.50;97.10
10245;DHT22;5167;52.164;10.530;2023-11-19T08:41:50;13.70;95.00
10245;DHT22;5167;52.164;10.530;2023-11-19T08:44:16;13.70;89.80
10245;DHT22;5167;52.164;10.530;2023-11-19T08:46:48;13.80;83.60
10245;DHT22;5167;52.164;10.530;2023-11-19T08:49:14;13.70;79.30
10245;DHT22;5167;52.164;10.530;2023-11-19T08:51:40;13.70;76.60
10245;DHT22;5167;52.164;10.530;2023-11-19T08:54:05;13.70;74.90
10245;DHT22;5167;52.164;10.530;2023-11-19T08:56:31;13.70;74.80
10245;DHT22;5167;52.164;10.530;2023-11-19T08:58:58;13.70;72.60
10245;DHT22;5167;52.164;10.530;2023-11-19T09:01:23;13.80;71.90
10245;DHT22;5167;52.164;10.530;2023-11-19T09:03:50;13.70;70.50
10245;DHT22;5167;52.164;10.530;2023-11-19T09:06:15;13.80;69.90
10245;DHT22;5167;52.164;10.530;2023-11-19T09:08:42;13.80;68.70
10245;DHT22;5167;52.164;10.530;2023-11-19T09:11:08;13.90;67.00
10245;DHT22;5167;52.164;10.530;2023-11-19T09:13:35;13.90;66.00
10245;DHT22;5167;52.164;10.530;2023-11-19T09:16:00;13.90;64.10
10245;DHT22;5167;52.164;10.530;2023-11-19T09:18:31;13.80;63.90
10245;DHT22;5167;52.164;10.530;2023-11-19T09:20:57;13.80;63.60
10245;DHT22;5167;52.164;10.530;2023-11-19T09:23:23;13.80;63.50
10245;DHT22;5167;52.164;10.530;2023-11-19T09:25:50;13.80;63.30
10245;DHT22;5167;52.164;10.530;2023-11-19T09:28:16;13.90;63.20
10245;DHT22;5167;52.164;10.530;2023-11-19T09:30:41;14.00;63.20
10245;DHT22;5167;52.164;10.530;2023-11-19T09:33:07;14.20;62.90
10245;DHT22;5167;52.164;10.530;2023-11-19T09:35:33;14.20;58.80
10245;DHT22;5167;52.164;10.530;2023-11-19T09:37:58;14.30;58.20
10245;DHT22;5167;52.164;10.530;2023-11-19T09:40:24;14.40;57.00
10245;DHT22;5167;52.164;10.530;2023-11-19T09:42:50;14.40;56.80
10245;DHT22;5167;52.164;10.530;2023-11-19T09:45:17;14.40;56.30
10245;DHT22;5167;52.164;10.530;2023-11-19T09:47:46;14.40;57.40
10245;DHT22;5167;52.164;10.530;2023-11-19T09:50:16;14.30;56.90
10245;DHT22;5167;52.164;10.530;2023-11-19T09:52:44;14.30;55.80
10245;DHT22;5167;52.164;10.530;2023-11-19T09:55:10;14.20;56.70
10245;DHT22;5167;52.164;10.530;2023-11-19T09:57:38;14.10;58.60
10245;DHT22;5167;52.164;10.530;2023-11-19T10:00:04;14.10;61.30
10245;DHT22;5167;52.164;10.530;2023-11-19T10:02:34;14.10;62.60
10245;DHT22;5167;52.164;10.530;2023-11-19T10:05:04;14.10;60.80
10245;DHT22;5167;52.164;10.530;2023-11-19T10:07:31;14.00;61.60
10245;DHT22;5167;52.164;10.530;2023-11-19T10:10:04;14.10;62.10
10245;DHT22;5167;52.164;10.530;2023-11-19T10:12:30;14.00;61.00
10245;DHT22;5167;52.164;10.530;2023-11-19T10:14:57;14.10;61.50
10245;DHT22;5167;52.164;10.530;2023-11-19T10:17:29;14.20;60.00
10245;DHT22;5167;52.164;10.530;2023-11-19T10:19:57;14.30;61.10
10245;DHT22;5167;52.164;10.530;2023-11-19T10:22:23;14.30;60.60
10245;DHT22;5167;52.164;10.530;2023-11-19T10:24:50;14.40;58.00
10245;DHT22;5167;52.164;10.530;2023-11-19T10:27:15;14.50;56.90
10245;DHT22;5167;52.164;10.530;2023-11-19T10:29:47;14.70;55.90
10245;DHT22;5167;52.164;10.530;2023-11-19T10:32:13;14.80;52.00
10245;DHT22;5167;52.164;10.530;2023-11-19T10:34:40;14.90;48.20
10245;DHT22;5167;52.164;10.530;2023-11-19T10:37:07;14.90;46.80
10245;DHT22;5167;52.164;10.530;2023-11-19T10:39:52;15.00;43.90
10245;DHT22;5167;52.164;10.530;2023-11-19T10:42:19;15.10;45.60
10245;DHT22;5167;52.164;10.530;2023-11-19T10:44:45;15.10;43.10
10245;DHT22;5167;52.164;10.530;2023-11-19T10:47:12;15.20;41.30
10245;DHT22;5167;52.164;10.530;2023-11-19T10:49:38;15.10;40.40
10245;DHT22;5167;52.164;10.530;2023-11-19T10:52:05;15.10;39.20
10245;DHT22;5167;52.164;10.530;2023-11-19T10:54:31;15.10;40.80
10245;DHT22;5167;52.164;10.530;2023-11-19T10:57:02;15.10;40.20
10245;DHT22;5167;52.164;10.530;2023-11-19T10:59:30;15.20;39.30
10245;DHT22;5167;52.164;10.530;2023-11-19T11:01:57;15.30;38.10
10245;DHT22;5167;52.164;10.530;2023-11-19T11:04:26;15.20;37.50
10245;DHT22;5167;52.164;10.530;2023-11-19T11:06:54;15.20;37.10
10245;DHT22;5167;52.164;10.530;2023-11-19T11:09:22;15.20;37.30
10245;DHT22;5167;52.164;10.530;2023-11-19T11:11:50;15.10;37.20
10245;DHT22;5167;52.164;10.530;2023-11-19T11:14:18;15.00;38.40
10245;DHT22;5167;52.164;10.530;2023-11-19T11:16:46;14.80;38.60
10245;DHT22;5167;52.164;10.530;2023-11-19T11:19:15;14.70;39.40
10245;DHT22;5167;52.164;10.530;2023-11-19T11:21:45;14.70;40.80
10245;DHT22;5167;52.164;10.530;2023-11-19T11:30:23;14.90;40.70
10245;DHT22;5167;52.164;10.530;2023-11-19T11:35:55;14.80;40.90
10245;DHT22;5167;52.164;10.530;2023-11-19T11:38:27;14.90;40.70
10245;DHT22;5167;52.164;10.530;2023-11-19T11:41:21;14.90;39.90
10245;DHT22;5167;52.164;10.530;2023-11-19T11:43:54;15.00;40.00
10245;DHT22;5167;52.164;10.530;2023-11-19T11:49:04;15.00;39.50
10245;DHT22;5167;52.164;10.530;2023-11-19T11:54:11;15.00;38.00
10245;DHT22;5167;52.164;10.530;2023-11-19T11:57:03;15.00;37.60
10245;DHT22;5167;52.164;10.530;2023-11-19T11:59:37;14.90;35.90
10245;DHT22;5167;52.164;10.530;2023-11-19T12:02:03;14.90;35.30
10245;DHT22;5167;52.164;10.530;2023-11-19T12:04:29;14.90;35.50
10245;DHT22;5167;52.164;10.530;2023-11-19T12:07:12;15.00;34.20
10245;DHT22;5167;52.164;10.530;2023-11-19T12:09:40;14.90;33.90
10245;DHT22;5167;52.164;10.530;2023-11-19T12:12:19;14.90;33.10
10245;DHT22;5167;52.164;10.530;2023-11-19T12:19:59;15.00;32.70
10245;DHT22;5167;52.164;10.530;2023-11-19T12:22:25;15.00;32.60
10245;DHT22;5167;52.164;10.530;2023-11-19T12:24:52;15.00;32.60
10245;DHT22;5167;52.164;10.530;2023-11-19T12:27:19;15.00;32.00
10245;DHT22;5167;52.164;10.530;2023-11-19T12:29:47;15.00;31.60
10245;DHT22;5167;52.164;10.530;2023-11-19T12:32:12;15.00;31.30
10245;DHT22;5167;52.164;10.530;2023-11-19T12:34:39;14.90;31.80
10245;DHT22;5167;52.164;10.530;2023-11-19T12:37:05;15.00;31.90
10245;DHT22;5167;52.164;10.530;2023-11-19T12:39:31;15.00;31.10
10245;DHT22;5167;52.164;10.530;2023-11-19T12:41:57;15.00;31.10
10245;DHT22;5167;52.164;10.530;2023-11-19T12:44:24;15.00;30.20
10245;DHT22;5167;52.164;10.530;2023-11-19T12:47:04;15.00;31.00
10245;DHT22;5167;52.164;10.530;2023-11-19T12:49:30;15.00;29.80
10245;DHT22;5167;52.164;10.530;2023-11-19T12:51:55;15.00;29.60
10245;DHT22;5167;52.164;10.530;2023-11-19T12:54:32;15.00;29.40
10245;DHT22;5167;52.164;10.530;2023-11-19T12:56:58;15.00;28.80
10245;DHT22;5167;52.164;10.530;2023-11-19T12:59:24;15.00;27.70
10245;DHT22;5167;52.164;10.530;2023-11-19T13:01:59;15.00;28.70
10245;DHT22;5167;52.164;10.530;2023-11-19T13:04:29;15.00;27.60
10245;DHT22;5167;52.164;10.530;2023-11-19T13:06:57;15.00;28.00
10245;DHT22;5167;52.164;10.530;2023-11-19T13:09:23;15.10;28.10
10245;DHT22;5167;52.164;10.530;2023-11-19T13:11:52;15.10;27.20
10245;DHT22;5167;52.164;10.530;2023-11-19T13:14:18;15.10;26.70
10245;DHT22;5167;52.164;10.530;2023-11-19T13:16:45;15.20;26.70
10245;DHT22;5167;52.164;10.530;2023-11-19T13:19:14;15.10;26.70
10245;DHT22;5167;52.164;10.530;2023-11-19T13:21:41;15.00;26.10
10245;DHT22;5167;52.164;10.530;2023-11-19T13:24:07;15.00;26.40
10245;DHT22;5167;52.164;10.530;2023-11-19T13:26:33;15.00;26.80
10245;DHT22;5167;52.164;10.530;2023-11-19T13:28:58;15.00;26.60
10245;DHT22;5167;52.164;10.530;2023-11-19T13:31:24;15.00;27.10
10245;DHT22;5167;52.164;10.530;2023-11-19T13:33:49;15.00;26.80
10245;DHT22;5167;52.164;10.530;2023-11-19T13:36:15;15.00;26.50
10245;DHT22;5167;52.164;10.530;2023-11-19T13:38:40;14.90;26.20
10245;DHT22;5167;52.164;10.530;2023-11-19T13:41:07;14.90;26.20
10245;DHT22;5167;52.164;10.530;2023-11-19T13:43:35;14.90;25.60
10245;DHT22;5167;52.164;10.530;2023-11-19T13:46:00;14.90;25.50
10245;DHT22;5167;52.164;10.530;2023-11-19T13:48:26;14.80;25.60
10245;DHT22;5167;52.164;10.530;2023-11-19T13:50:54;14.80;26.10
10245;DHT22;5167;52.164;10.530;2023-11-19T13:53:20;14.80;26.70
10245;DHT22;5167;52.164;10.530;2023-11-19T13:55:46;14.70;27.00
10245;DHT22;5167;52.164;10.530;2023-11-19T13:58:11;14.60;27.50
10245;DHT22;5167;52.164;10.530;2023-11-19T14:00:37;14.60;28.20
10245;DHT22;5167;52.164;10.530;2023-11-19T14:03:03;14.60;29.00
10245;DHT22;5167;52.164;10.530;2023-11-19T14:05:28;14.60;29.30
10245;DHT22;5167;52.164;10.530;2023-11-19T14:07:54;14.60;29.10
10245;DHT22;5167;52.164;10.530;2023-11-19T14:10:22;14.60;31.00
10245;DHT22;5167;52.164;10.530;2023-11-19T14:12:48;14.50;33.60
10245;DHT22;5167;52.164;10.530;2023-11-19T14:15:15;14.40;34.30
10245;DHT22;5167;52.164;10.530;2023-11-19T14:17:43;14.50;34.00
10245;DHT22;5167;52.164;10.530;2023-11-19T14:20:09;14.50;32.80
10245;DHT22;5167;52.164;10.530;2023-11-19T14:22:44;14.40;33.10
10245;DHT22;5167;52.164;10.530;2023-11-19T14:25:10;14.50;34.10
10245;DHT22;5167;52.164;10.530;2023-11-19T14:27:40;14.40;33.90
10245;DHT22;5167;52.164;10.530;2023-11-19T14:30:07;14.40;34.10
10245;DHT22;5167;52.164;10.530;2023-11-19T14:32:33;14.40;35.00
10245;DHT22;5167;52.164;10.530;2023-11-19T14:34:59;14.30;35.50
10245;DHT22;5167;52.164;10.530;2023-11-19T14:37:24;14.30;35.40
10245;DHT22;5167;52.164;10.530;2023-11-19T14:39:50;14.30;37.30
10245;DHT22;5167;52.164;10.530;2023-11-19T14:42:18;14.20;38.50
10245;DHT22;5167;52.164;10.530;2023-11-19T14:44:44;14.20;39.30
10245;DHT22;5167;52.164;10.530;2023-11-19T14:47:09;14.30;39.70
10245;DHT22;5167;52.164;10.530;2023-11-19T14:49:35;14.20;39.70
10245;DHT22;5167;52.164;10.530;2023-11-19T14:52:02;14.20;40.20
10245;DHT22;5167;52.164;10.530;2023-11-19T14:54:28;14.20;39.60
10245;DHT22;5167;52.164;10.530;2023-11-19T14:56:54;14.30;40.40
10245;DHT22;5167;52.164;10.530;2023-11-19T14:59:19;14.30;39.70
10245;DHT22;5167;52.164;10.530;2023-11-19T15:01:45;14.30;39.60
10245;DHT22;5167;52.164;10.530;2023-11-19T15:04:11;14.20;39.40
10245;DHT22;5167;52.164;10.530;2023-11-19T15:06:37;14.10;39.50
10245;DHT22;5167;52.164;10.530;2023-11-19T15:09:03;14.10;39.80
10245;DHT22;5167;52.164;10.530;2023-11-19T15:11:29;14.00;39.30
10245;DHT22;5167;52.164;10.530;2023-11-19T15:13:54;14.10;39.20
10245;DHT22;5167;52.164;10.530;2023-11-19T15:16:20;14.10;39.40
10245;DHT22;5167;52.164;10.530;2023-11-19T15:18:51;14.00;39.50
10245;DHT22;5167;52.164;10.530;2023-11-19T15:21:17;13.90;39.90
10245;DHT22;5167;52.164;10.530;2023-11-19T15:23:43;14.00;40.80
10245;DHT22;5167;52.164;10.530;2023-11-19T15:26:09;13.90;40.80
10245;DHT22;5167;52.164;10.530;2023-11-19T15:28:36;13.90;41.00
10245;DHT22;5167;52.164;10.530;2023-11-19T15:31:02;13.80;40.90
10245;DHT22;5167;52.164;10.530;2023-11-19T15:33:28;13.90;41.70
10245;DHT22;5167;52.164;10.530;2023-11-19T15:35:53;13.90;41.50
10245;DHT22;5167;52.164;10.530;2023-11-19T15:38:19;13.90;41.40
10245;DHT22;5167;52.164;10.530;2023-11-19T15:40:44;13.70;40.70
10245;DHT22;5167;52.164;10.530;2023-11-19T15:43:10;13.80;40.90
10245;DHT22;5167;52.164;10.530;2023-11-19T15:45:36;13.60;41.30
10245;DHT22;5167;52.164;10.530;2023-11-19T15:48:05;13.70;41.50
10245;DHT22;5167;52.164;10.530;2023-11-19T15:50:31;13.70;41.40